createdAt,value
2024-02-04T00:02:32.159Z,101528.53
2024-02-04T00:05:03.061Z,101495.53
2024-02-04T00:07:33.235Z,101481.66
2024-02-04T00:10:04.308Z,101516.97
2024-02-04T00:12:34.436Z,101483.28
2024-02-04T00:15:05.730Z,101517.13
2024-02-04T00:17:38.671Z,101434.66
2024-02-04T00:20:10.783Z,101456.16
2024-02-04T00:22:41.057Z,101525.59
2024-02-04T00:25:13.672Z,101490.28
2024-02-04T00:27:43.981Z,101521.75
2024-02-04T00:30:14.841Z,101441.97
2024-02-04T00:32:47.628Z,101436.06
2024-02-04T00:35:17.738Z,101475.00
2024-02-04T00:37:48.697Z,101500.06
2024-02-04T00:40:18.869Z,101484.31
2024-02-04T00:42:49.021Z,101392.59
2024-02-04T00:45:19.212Z,101491.41
2024-02-04T00:47:52.021Z,101497.28
2024-02-04T00:50:22.259Z,101469.50
2024-02-04T00:52:54.611Z,101479.22
2024-02-04T00:55:24.958Z,101451.53
2024-02-04T00:57:56.989Z,101457.81
2024-02-04T01:00:27.261Z,101445.41
2024-02-04T01:03:00.322Z,101429.09
2024-02-04T01:05:30.549Z,101370.66
2024-02-04T01:08:01.968Z,101477.25
2024-02-04T01:10:32.069Z,101462.78
2024-02-04T01:13:02.195Z,101443.00
2024-02-04T01:15:32.396Z,101466.56
2024-02-04T01:18:05.137Z,101380.59
2024-02-04T01:20:35.312Z,101455.91
2024-02-04T01:23:07.237Z,101481.22
2024-02-04T01:25:39.110Z,101480.56
2024-02-04T01:28:10.922Z,101468.44
2024-02-04T01:30:41.088Z,101482.53
2024-02-04T01:33:14.076Z,101481.88
2024-02-04T01:35:44.215Z,101489.47
2024-02-04T01:38:14.290Z,101439.25
2024-02-04T01:40:44.357Z,101466.78
2024-02-04T01:43:14.487Z,101490.13
2024-02-04T01:45:44.620Z,101469.19
2024-02-04T01:48:18.981Z,101469.34
2024-02-04T01:50:49.977Z,101478.00
2024-02-04T01:53:21.674Z,101489.25
2024-02-04T01:55:52.779Z,101476.66
2024-02-04T01:58:22.887Z,101468.63
2024-02-04T02:00:54.260Z,101471.47
2024-02-04T02:03:28.647Z,101467.34
2024-02-04T02:05:59.775Z,101475.69
2024-02-04T02:08:30.197Z,101460.31
2024-02-04T02:11:07.692Z,101441.53
2024-02-04T02:13:40.091Z,101359.06
2024-02-04T02:16:17.076Z,101360.06
2024-02-04T02:18:54.061Z,101439.19
2024-02-04T02:21:42.770Z,101396.97
2024-02-04T02:24:18.085Z,101410.72
2024-02-04T02:26:51.904Z,101424.41
2024-02-04T02:29:21.972Z,101413.78
2024-02-04T02:31:52.060Z,101425.16
2024-02-04T02:34:30.654Z,101441.66
2024-02-04T02:37:19.132Z,101411.50
2024-02-04T02:39:57.483Z,101391.56
2024-02-04T02:42:30.856Z,101365.47
2024-02-04T02:45:01.571Z,101396.75
2024-02-04T02:47:33.792Z,101419.38
2024-02-04T02:50:04.824Z,101396.06
2024-02-04T02:52:35.177Z,101367.44
2024-02-04T02:55:05.332Z,101413.34
2024-02-04T02:57:38.766Z,101402.19
2024-02-04T03:00:10.632Z,101398.91
2024-02-04T03:02:40.774Z,101385.69
2024-02-04T03:05:13.091Z,101384.84
2024-02-04T03:07:43.311Z,101382.75
2024-02-04T03:10:14.058Z,101414.72
2024-02-04T03:12:46.793Z,101420.88
2024-02-04T03:15:17.102Z,101408.72
2024-02-04T03:17:47.669Z,101406.56
2024-02-04T03:20:18.075Z,101398.53
2024-02-04T03:22:49.521Z,101407.38
2024-02-04T03:25:19.592Z,101409.97
2024-02-04T03:27:54.080Z,101416.69
2024-02-04T03:30:24.271Z,101407.28
2024-02-04T03:32:54.582Z,101407.38
2024-02-04T03:35:24.818Z,101385.31
2024-02-04T03:37:54.961Z,101376.75
2024-02-04T03:40:26.091Z,101400.13
2024-02-04T03:42:58.942Z,101338.28
2024-02-04T03:45:29.147Z,101395.47
2024-02-04T03:47:59.498Z,101375.72
2024-02-04T03:50:29.724Z,101335.31
2024-02-04T03:52:59.831Z,101392.50
2024-02-04T03:55:29.909Z,101390.09
2024-02-04T03:58:03.442Z,101378.59
2024-02-04T04:00:33.650Z,101402.63
2024-02-04T04:03:04.089Z,101389.00
2024-02-04T04:05:34.398Z,101386.31
2024-02-04T04:08:04.593Z,101387.97
2024-02-04T04:10:34.628Z,101346.09
2024-02-04T04:13:07.757Z,101354.69
2024-02-04T04:15:37.837Z,101351.06
2024-02-04T04:18:08.615Z,101384.97
2024-02-04T04:20:38.738Z,101380.59
2024-02-04T04:23:08.895Z,101373.53
2024-02-04T04:25:39.009Z,101368.00
2024-02-04T04:28:11.871Z,101385.69
2024-02-04T04:30:42.014Z,101363.94
2024-02-04T04:33:13.632Z,101351.19
2024-02-04T04:35:43.846Z,101382.13
2024-02-04T04:38:13.942Z,101384.59
2024-02-04T04:40:44.117Z,101395.81
2024-02-04T04:43:16.780Z,101390.94
2024-02-04T04:45:46.862Z,101389.28
2024-02-04T04:48:17.465Z,101407.03
2024-02-04T04:50:48.062Z,101361.59
2024-02-04T04:53:18.201Z,101346.09
2024-02-04T04:55:48.259Z,101392.69
2024-02-04T04:58:20.939Z,101390.78
2024-02-04T05:00:51.147Z,101402.88
2024-02-04T05:03:21.340Z,101399.31
2024-02-04T05:05:51.403Z,101410.47
2024-02-04T05:08:21.562Z,101401.78
2024-02-04T05:10:51.619Z,101412.19
2024-02-04T05:13:24.593Z,101395.94
2024-02-04T05:15:54.738Z,101417.00
2024-02-04T05:18:28.263Z,101395.66
2024-02-04T05:20:58.520Z,101365.66
2024-02-04T05:23:28.660Z,101389.22
2024-02-04T05:25:58.761Z,101362.53
2024-02-04T05:28:31.497Z,101394.47
2024-02-04T05:31:01.605Z,101387.75
2024-02-04T05:33:31.778Z,101369.53
2024-02-04T05:36:01.872Z,101393.72
2024-02-04T05:38:32.003Z,101360.00
2024-02-04T05:41:02.063Z,101361.16
2024-02-04T05:43:34.792Z,101359.66
2024-02-04T05:46:04.986Z,101331.19
2024-02-04T05:48:35.516Z,101382.44
2024-02-04T05:51:05.788Z,101374.72
2024-02-04T05:53:35.857Z,101377.25
2024-02-04T05:56:05.967Z,101306.91
2024-02-04T05:58:39.208Z,101324.50
2024-02-04T06:01:09.416Z,101357.28
2024-02-04T06:03:39.628Z,101383.25
2024-02-04T06:06:10.144Z,101348.84
2024-02-04T06:08:40.348Z,101364.28
2024-02-04T06:11:13.901Z,101376.06
2024-02-04T06:13:48.491Z,101363.25
2024-02-04T06:16:18.783Z,101357.09
2024-02-04T06:18:48.968Z,101365.00
2024-02-04T06:21:19.209Z,101348.66
2024-02-04T06:23:49.273Z,101320.34
2024-02-04T06:26:19.407Z,101323.78
2024-02-04T06:28:52.654Z,101326.72
2024-02-04T06:31:22.936Z,101312.88
2024-02-04T06:33:53.123Z,101320.50
2024-02-04T06:36:23.283Z,101313.19
2024-02-04T06:38:53.460Z,101312.25
2024-02-04T06:41:23.564Z,101311.31
2024-02-04T06:43:56.341Z,101325.97
2024-02-04T06:46:29.955Z,101330.22
2024-02-04T06:49:00.632Z,101332.78
2024-02-04T06:51:30.808Z,101310.53
2024-02-04T06:54:02.131Z,101261.19
2024-02-04T06:56:32.217Z,101313.94
2024-02-04T06:59:04.913Z,101291.88
2024-02-04T07:01:35.493Z,101291.47
2024-02-04T07:04:05.838Z,101300.94
2024-02-04T07:06:36.120Z,101304.63
2024-02-04T07:09:06.789Z,101270.72
2024-02-04T07:11:36.891Z,101308.72
2024-02-04T07:14:09.690Z,101301.41
2024-02-04T07:16:39.759Z,101289.16
2024-02-04T07:19:09.891Z,101311.59
2024-02-04T07:21:40.094Z,101295.66
2024-02-04T07:24:10.210Z,101319.25
2024-02-04T07:26:40.271Z,101325.75
2024-02-04T07:29:12.929Z,101292.94
2024-02-04T07:31:43.084Z,101297.03
2024-02-04T07:34:13.229Z,101317.47
2024-02-04T07:36:45.101Z,101288.84
2024-02-04T07:39:15.566Z,101311.66
2024-02-04T07:41:45.645Z,101276.03
2024-02-04T07:44:18.302Z,101315.84
2024-02-04T07:46:48.372Z,101281.84
2024-02-04T07:49:18.573Z,101313.13
2024-02-04T07:51:48.778Z,101297.03
2024-02-04T07:54:18.844Z,101313.88
2024-02-04T07:56:49.105Z,101248.16
2024-02-04T07:59:21.853Z,101300.56
2024-02-04T08:01:51.928Z,101209.72
2024-02-04T08:04:22.134Z,101296.78
2024-02-04T08:06:54.209Z,101295.06
2024-02-04T08:09:24.548Z,101289.50
2024-02-04T08:11:57.088Z,101267.22
2024-02-04T08:14:30.498Z,101255.78
2024-02-04T08:17:00.534Z,101307.78
2024-02-04T08:19:30.692Z,101287.91
2024-02-04T08:22:02.037Z,101300.47
2024-02-04T08:24:33.418Z,101306.88
2024-02-04T08:27:04.936Z,101292.78
2024-02-04T08:29:37.707Z,101277.34
2024-02-04T08:32:08.569Z,101308.59
2024-02-04T08:34:38.837Z,101266.13
2024-02-04T08:37:09.197Z,101298.69
2024-02-04T08:39:39.536Z,101282.13
2024-02-04T08:42:09.814Z,101320.13
2024-02-04T08:44:42.696Z,101335.69
2024-02-04T08:47:15.782Z,101310.59
2024-02-04T08:49:46.035Z,101331.47
2024-02-04T08:52:16.374Z,101321.94
2024-02-04T08:54:46.574Z,101327.78
2024-02-04T08:57:18.288Z,101295.09
2024-02-04T08:59:51.113Z,101322.66
2024-02-04T09:02:21.302Z,101301.22
2024-02-04T09:04:51.446Z,101323.22
2024-02-04T09:07:21.678Z,101291.31
2024-02-04T09:09:51.943Z,101292.13
2024-02-04T09:12:22.068Z,101320.91
2024-02-04T09:14:54.810Z,101314.22
2024-02-04T09:17:24.992Z,101311.59
2024-02-04T09:19:55.359Z,101225.13
2024-02-04T09:22:25.559Z,101305.00
2024-02-04T09:24:56.157Z,101281.16
2024-02-04T09:27:26.937Z,101310.97
2024-02-04T09:30:00.122Z,101305.00
2024-02-04T09:32:30.466Z,101300.00
2024-02-04T09:35:00.846Z,101306.88
2024-02-04T09:37:31.098Z,101289.41
2024-02-04T09:40:01.371Z,101278.78
2024-02-04T09:42:32.723Z,101304.22
2024-02-04T09:45:06.171Z,101306.66
2024-02-04T09:47:38.764Z,101311.38
2024-02-04T09:50:10.311Z,101268.97
2024-02-04T09:52:44.698Z,101318.91
2024-02-04T09:55:19.546Z,101328.84
2024-02-04T09:57:49.796Z,101284.88
2024-02-04T10:00:23.712Z,101304.63
2024-02-04T10:02:53.973Z,101309.06
2024-02-04T10:05:24.333Z,101298.78
2024-02-04T10:07:54.699Z,101304.03
2024-02-04T10:10:24.985Z,101278.28
2024-02-04T10:12:55.408Z,101251.38
2024-02-04T10:15:28.180Z,101300.75
2024-02-04T10:17:58.826Z,101307.53
2024-02-04T10:20:28.967Z,101299.19
2024-02-04T10:22:59.026Z,101296.25
2024-02-04T10:25:29.164Z,101215.09
2024-02-04T10:27:59.442Z,101298.34
2024-02-04T10:30:32.610Z,101245.09
2024-02-04T10:33:03.817Z,101252.13
2024-02-04T10:35:34.124Z,101280.41
2024-02-04T10:38:04.227Z,101253.38
2024-02-04T10:40:34.303Z,101288.19
2024-02-04T10:43:08.738Z,101288.06
2024-02-04T10:45:46.818Z,101261.38
2024-02-04T10:48:23.356Z,101286.81
2024-02-04T10:50:55.330Z,101293.44
2024-02-04T10:53:26.597Z,101294.22
2024-02-04T10:56:02.476Z,101274.16
2024-02-04T10:58:33.903Z,101272.88
2024-02-04T11:01:07.753Z,101309.38
2024-02-04T11:03:38.378Z,101286.84
2024-02-04T11:06:09.141Z,101262.03
2024-02-04T11:08:39.766Z,101288.59
2024-02-04T11:11:09.962Z,101294.56
2024-02-04T11:13:42.391Z,101253.16
2024-02-04T11:16:35.383Z,101253.69
2024-02-04T11:19:24.745Z,101292.63
2024-02-04T11:22:27.545Z,101269.34
2024-02-04T11:25:24.737Z,101271.28
2024-02-04T11:27:55.997Z,101221.97
2024-02-04T11:30:27.110Z,101261.03
2024-02-04T11:33:03.981Z,101264.03
2024-02-04T11:35:34.977Z,101223.47
2024-02-04T11:38:06.647Z,101235.97
2024-02-04T11:40:39.836Z,101233.78
2024-02-04T11:43:10.891Z,101220.03
2024-02-04T11:45:44.966Z,101261.56
2024-02-04T11:48:18.282Z,101212.72
2024-02-04T11:50:57.000Z,101257.88
2024-02-04T11:53:30.180Z,101213.47
2024-02-04T11:56:01.161Z,101244.72
2024-02-04T11:58:33.370Z,101230.03
2024-02-04T12:01:05.548Z,101249.53
2024-02-04T12:03:38.395Z,101257.69
2024-02-04T12:06:10.223Z,101226.75
2024-02-04T12:08:41.710Z,101253.66
2024-02-04T12:11:13.147Z,101250.50
2024-02-04T12:13:44.325Z,101248.88
2024-02-04T12:16:14.409Z,101225.31
2024-02-04T12:18:54.666Z,101205.41
2024-02-04T12:21:25.069Z,101242.75
2024-02-04T12:23:55.321Z,101190.72
2024-02-04T12:26:26.371Z,101248.69
2024-02-04T12:28:56.875Z,101249.16
2024-02-04T12:31:30.433Z,101245.72
2024-02-04T12:34:04.606Z,101247.94
2024-02-04T12:36:35.841Z,101252.31
2024-02-04T12:39:11.066Z,101182.41
2024-02-04T12:41:41.278Z,101187.50
2024-02-04T12:44:11.491Z,101208.28
2024-02-04T12:46:41.608Z,101232.25
2024-02-04T12:49:15.341Z,101249.34
2024-02-04T12:51:45.725Z,101162.81
2024-02-04T12:54:16.597Z,101224.53
2024-02-04T12:56:49.469Z,101222.31
2024-02-04T12:59:30.098Z,101205.69
2024-02-04T13:02:02.923Z,101222.38
2024-02-04T13:04:41.349Z,101178.19
2024-02-04T13:07:14.461Z,101200.63
2024-02-04T13:09:45.167Z,101133.28
2024-02-04T13:12:18.793Z,101191.31
2024-02-04T13:14:49.724Z,101126.44
2024-02-04T13:17:19.849Z,101211.03
2024-02-04T13:19:52.664Z,101207.69
2024-02-04T13:22:22.962Z,101190.19
2024-02-04T13:24:53.131Z,101189.97
2024-02-04T13:27:23.487Z,101195.41
2024-02-04T13:29:53.640Z,101163.38
2024-02-04T13:32:23.839Z,101196.22
2024-02-04T13:35:05.741Z,101199.75
2024-02-04T13:37:47.994Z,101180.06
2024-02-04T13:40:19.504Z,101180.19
2024-02-04T13:42:50.420Z,101101.59
2024-02-04T13:45:21.065Z,101143.84
2024-02-04T13:47:51.408Z,101180.38
2024-02-04T13:50:24.323Z,101152.09
2024-02-04T13:52:54.539Z,101175.41
2024-02-04T13:55:24.829Z,101120.28
2024-02-04T13:57:55.008Z,101169.63
2024-02-04T14:00:25.112Z,101146.81
2024-02-04T14:02:55.238Z,101145.38
2024-02-04T14:05:28.134Z,101155.38
2024-02-04T14:07:59.986Z,101131.13
2024-02-04T14:10:30.585Z,101145.00
2024-02-04T14:13:00.713Z,101106.44
2024-02-04T14:15:30.844Z,101108.06
2024-02-04T14:18:01.304Z,101104.25
2024-02-04T14:20:34.678Z,101134.41
2024-02-04T14:23:04.809Z,101090.47
2024-02-04T14:25:35.015Z,101101.47
2024-02-04T14:28:06.220Z,101072.94
2024-02-04T14:30:36.458Z,101149.66
2024-02-04T14:33:07.197Z,101123.97
2024-02-04T14:35:40.032Z,101117.13
2024-02-04T14:38:10.152Z,101130.75
2024-02-04T14:40:40.201Z,101110.03
2024-02-04T14:43:10.820Z,101157.50
2024-02-04T14:45:41.014Z,101068.56
2024-02-04T14:48:11.539Z,101149.78
2024-02-04T14:50:44.226Z,101136.72
2024-02-04T14:53:14.318Z,101120.91
2024-02-04T14:55:44.863Z,101162.09
2024-02-04T14:58:15.244Z,101154.41
2024-02-04T15:00:45.426Z,101129.59
2024-02-04T15:03:15.640Z,101094.81
2024-02-04T15:05:48.506Z,101135.34
2024-02-04T15:08:18.632Z,101093.81
2024-02-04T15:10:49.048Z,101152.09
2024-02-04T15:13:19.876Z,101140.88
2024-02-04T15:15:50.647Z,101069.75
2024-02-04T15:18:21.322Z,101118.28
2024-02-04T15:20:54.726Z,101144.03
2024-02-04T15:23:25.797Z,101120.66
2024-02-04T15:25:57.200Z,101127.41
2024-02-04T15:28:28.094Z,101149.63
2024-02-04T15:30:59.380Z,101132.25
2024-02-04T15:33:30.541Z,101119.50
2024-02-04T15:36:03.645Z,101143.13
2024-02-04T15:38:33.771Z,101113.91
2024-02-04T15:41:03.852Z,101107.03
2024-02-04T15:43:33.963Z,101081.88
2024-02-04T15:46:11.672Z,101079.13
2024-02-04T15:48:45.522Z,101106.69
2024-02-04T15:51:19.159Z,101126.19
2024-02-04T15:53:50.124Z,101135.78
2024-02-04T15:56:25.581Z,101054.28
2024-02-04T15:59:07.267Z,101101.81
2024-02-04T16:01:38.679Z,101098.06
2024-02-04T16:04:09.662Z,101131.06
2024-02-04T16:06:43.394Z,101123.44
2024-02-04T16:09:14.735Z,101117.25
2024-02-04T16:11:58.246Z,101104.38
2024-02-04T16:14:30.126Z,101119.06
2024-02-04T16:17:06.876Z,101122.41
2024-02-04T16:19:38.111Z,101111.31
2024-02-04T16:22:11.174Z,101027.56
2024-02-04T16:24:42.135Z,101085.50
2024-02-04T16:27:12.307Z,101108.16
2024-02-04T16:29:43.110Z,101058.81
2024-02-04T16:32:15.608Z,101096.03
2024-02-04T16:34:46.044Z,101109.59
2024-02-04T16:37:18.891Z,101103.66
2024-02-04T16:39:49.020Z,101085.47
2024-02-04T16:42:19.105Z,101080.31
2024-02-04T16:44:52.662Z,101057.34
2024-02-04T16:47:22.912Z,101097.97
2024-02-04T16:49:53.088Z,100991.69
2024-02-04T16:52:26.790Z,101018.81
2024-02-04T16:54:58.106Z,101051.72
2024-02-04T16:57:28.173Z,101055.28
2024-02-04T16:59:58.201Z,101058.75
2024-02-04T17:02:29.161Z,101055.69
2024-02-04T17:05:00.949Z,101048.09
2024-02-04T17:07:34.560Z,101017.03
2024-02-04T17:10:05.208Z,101052.38
2024-02-04T17:12:36.166Z,101047.03
2024-02-04T17:15:07.196Z,101049.09
2024-02-04T17:17:37.769Z,101046.44
2024-02-04T17:20:12.996Z,101005.63
2024-02-04T17:22:48.353Z,101034.09
2024-02-04T17:25:20.353Z,101018.66
2024-02-04T17:27:52.533Z,101015.53
2024-02-04T17:30:23.588Z,101006.75
2024-02-04T17:32:55.507Z,101034.44
2024-02-04T17:35:27.496Z,100985.47
2024-02-04T17:38:00.631Z,101028.59
2024-02-04T17:40:33.012Z,101033.91
2024-02-04T17:43:03.453Z,101021.78
2024-02-04T17:45:34.128Z,100999.19
2024-02-04T17:48:05.097Z,100992.44
2024-02-04T17:50:35.794Z,100995.06
2024-02-04T17:53:09.207Z,100949.19
2024-02-04T17:55:40.356Z,101046.66
2024-02-04T17:58:10.607Z,101042.38
2024-02-04T18:00:42.304Z,101042.44
2024-02-04T18:03:12.446Z,101039.03
2024-02-04T18:05:44.732Z,101036.69
2024-02-04T18:08:17.588Z,101009.97
2024-02-04T18:10:50.555Z,101005.25
2024-02-04T18:13:20.793Z,101016.50
2024-02-04T18:15:55.115Z,101008.91
2024-02-04T18:18:25.392Z,100994.50
2024-02-04T18:20:57.564Z,100989.25
2024-02-04T18:23:30.858Z,101010.78
2024-02-04T18:26:00.898Z,100996.06
2024-02-04T18:28:30.983Z,100994.50
2024-02-04T18:31:01.083Z,100999.78
2024-02-04T18:33:31.491Z,100909.84
2024-02-04T18:36:01.681Z,100979.19
2024-02-04T18:38:34.400Z,100936.88
2024-02-04T18:41:04.945Z,100986.09
2024-02-04T18:43:35.011Z,100965.47
2024-02-04T18:46:06.544Z,100944.34
2024-02-04T18:48:36.805Z,100950.63
2024-02-04T18:51:07.655Z,100945.66
2024-02-04T18:53:40.551Z,100936.91
2024-02-04T18:56:16.565Z,100951.66
2024-02-04T18:58:51.344Z,100879.38
2024-02-04T19:01:24.821Z,100940.44
2024-02-04T19:03:55.927Z,100919.13
2024-02-04T19:06:30.202Z,100913.16
2024-02-04T19:09:04.434Z,100897.94
2024-02-04T19:11:36.644Z,100632.66
2024-02-04T19:14:06.885Z,100909.34
2024-02-04T19:16:36.965Z,100895.91
2024-02-04T19:19:07.366Z,100899.28
2024-02-04T19:21:37.585Z,100870.13
2024-02-04T19:24:10.776Z,100903.66
2024-02-04T19:26:41.006Z,100903.78
2024-02-04T19:29:11.102Z,100843.53
2024-02-04T19:31:42.006Z,100821.88
2024-02-04T19:34:15.214Z,100909.00
2024-02-04T19:36:48.148Z,100914.19
2024-02-04T19:39:21.238Z,100880.16
2024-02-04T19:41:51.557Z,100813.91
2024-02-04T19:44:22.564Z,100900.09
2024-02-04T19:46:52.937Z,100883.88
2024-02-04T19:49:29.105Z,100854.81
2024-02-04T19:52:02.069Z,100895.22
2024-02-04T19:54:35.421Z,100884.22
2024-02-04T19:57:05.545Z,100850.44
2024-02-04T19:59:35.688Z,100848.03
2024-02-04T20:02:05.853Z,100886.16
2024-02-04T20:04:37.174Z,100851.50
2024-02-04T20:07:08.613Z,100853.50
2024-02-04T20:09:41.327Z,100865.53
2024-02-04T20:12:11.790Z,100883.66
2024-02-04T20:14:42.057Z,100881.00
2024-02-04T20:17:12.217Z,100873.66
2024-02-04T20:19:42.926Z,100848.66
2024-02-04T20:22:13.305Z,100856.63
2024-02-04T20:24:46.116Z,100856.75
2024-02-04T20:27:16.338Z,100813.75
2024-02-04T20:29:47.473Z,100870.59
2024-02-04T20:32:17.648Z,100843.81
2024-02-04T20:34:47.870Z,100867.28
2024-02-04T20:37:18.695Z,100857.94
2024-02-04T20:39:51.441Z,100875.13
2024-02-04T20:42:21.544Z,100828.75
2024-02-04T20:44:51.670Z,100760.44
2024-02-04T20:47:21.785Z,100827.00
2024-02-04T20:49:52.281Z,100850.22
2024-02-04T20:52:22.883Z,100857.25
2024-02-04T20:54:55.741Z,100858.13
2024-02-04T20:57:25.858Z,100851.13
2024-02-04T20:59:55.973Z,100859.72
2024-02-04T21:02:26.055Z,100545.28
2024-02-04T21:04:56.203Z,100861.38
2024-02-04T21:07:26.398Z,100789.91
2024-02-04T21:09:59.570Z,100834.66
2024-02-04T21:12:30.720Z,100850.41
2024-02-04T21:15:04.346Z,100835.72
2024-02-04T21:17:35.994Z,100862.41
2024-02-04T21:20:08.139Z,100810.66
2024-02-04T21:22:38.881Z,100530.03
2024-02-04T21:25:13.900Z,100846.22
2024-02-04T21:27:44.557Z,100773.97
2024-02-04T21:30:14.972Z,100818.75
2024-02-04T21:32:49.806Z,100773.31
2024-02-04T21:35:20.113Z,100794.09
2024-02-04T21:37:51.483Z,100795.19
2024-02-04T21:40:26.983Z,100818.16
2024-02-04T21:42:57.160Z,100816.56
2024-02-04T21:45:27.343Z,100801.84
2024-02-04T21:47:57.436Z,100823.50
2024-02-04T21:50:27.596Z,100754.50
2024-02-04T21:52:58.712Z,100834.66
2024-02-04T21:55:31.467Z,100826.16
2024-02-04T21:58:03.709Z,100829.66
2024-02-04T22:00:36.036Z,100809.81
2024-02-04T22:03:07.055Z,100818.38
2024-02-04T22:05:37.961Z,100804.63
2024-02-04T22:08:09.685Z,100751.16
2024-02-04T22:10:42.477Z,100820.88
2024-02-04T22:13:12.694Z,100819.22
2024-02-04T22:15:42.847Z,100791.59
2024-02-04T22:18:13.010Z,100827.00
2024-02-04T22:20:43.196Z,100818.50
2024-02-04T22:23:14.340Z,100792.72
2024-02-04T22:25:49.601Z,100817.06
2024-02-04T22:28:20.243Z,100828.13
2024-02-04T22:30:50.405Z,100820.47
2024-02-04T22:33:20.764Z,100831.63
2024-02-04T22:35:50.929Z,100799.97
2024-02-04T22:38:21.075Z,100757.72
2024-02-04T22:40:53.737Z,100823.09
2024-02-04T22:43:23.999Z,100813.63
2024-02-04T22:45:54.421Z,100794.84
2024-02-04T22:48:24.599Z,100823.19
2024-02-04T22:50:54.703Z,100836.94
2024-02-04T22:53:24.923Z,100836.81
2024-02-04T22:55:57.883Z,100791.34
2024-02-04T22:58:29.040Z,100838.72
2024-02-04T23:00:59.518Z,100835.34
2024-02-04T23:03:30.155Z,100810.28
2024-02-04T23:06:00.241Z,100817.25
2024-02-04T23:08:30.492Z,100813.88
2024-02-04T23:11:03.943Z,100841.41
2024-02-04T23:13:34.037Z,100822.38
2024-02-04T23:16:04.389Z,100843.09
2024-02-04T23:18:34.528Z,100819.00
2024-02-04T23:21:07.418Z,100836.22
2024-02-04T23:23:37.529Z,100824.19
2024-02-04T23:26:10.891Z,100835.34
2024-02-04T23:28:40.946Z,100814.75
2024-02-04T23:31:11.244Z,100844.69
2024-02-04T23:33:41.389Z,100809.50
2024-02-04T23:36:12.205Z,100844.63
2024-02-04T23:38:42.396Z,100854.84
2024-02-04T23:41:15.146Z,100851.59
2024-02-04T23:43:45.328Z,100801.53
2024-02-04T23:46:16.155Z,100860.88
2024-02-04T23:48:46.468Z,100817.78
2024-02-04T23:51:16.893Z,100826.34
2024-02-04T23:53:47.024Z,100858.84
2024-02-04T23:56:19.966Z,100849.72
2024-02-04T23:58:50.102Z,100841.44
